Time;durP1;ratioP1;P1;durP2;ratioP2;P2;SDS_P1;SDS_P2;PMS_P1;PMS_P2;Temp;Humidity;BMP_temperature;BMP_pressure;BME280_temperature;BME280_humidity;BME280_pressure;Samples;Min_cycle;Max_cycle;Signal;HPM_P1;HPM_P2
2023/12/03 00:00:56;;;;;;;15.53;9.20;;;-1.80;18.80;;;;;;5044168;28;20485;-72
2023/12/03 00:03:24;;;;;;;13.93;8.30;;;-1.90;18.90;;;;;;5045632;28;20474;-72
2023/12/03 00:05:51;;;;;;;15.70;9.90;;;-1.90;18.90;;;;;;5045448;28;20484;-72
2023/12/03 00:08:18;;;;;;;16.53;9.57;;;-1.90;18.80;;;;;;5045142;28;20466;-72
2023/12/03 00:10:45;;;;;;;14.13;8.53;;;-1.90;18.70;;;;;;5043769;28;20557;-72
2023/12/03 00:13:12;;;;;;;14.37;9.60;;;-2.00;18.50;;;;;;5045492;28;20589;-72
2023/12/03 00:15:38;;;;;;;17.93;10.63;;;-2.00;18.70;;;;;;5046648;28;20461;-72
2023/12/03 00:18:07;;;;;;;18.90;12.77;;;-2.00;19.40;;;;;;5043630;28;20478;-72
2023/12/03 00:20:33;;;;;;;16.60;11.00;;;-2.00;19.10;;;;;;5042686;28;20513;-72
2023/12/03 00:23:00;;;;;;;19.13;11.63;;;-1.90;19.30;;;;;;5043586;28;20470;-72
2023/12/03 00:25:27;;;;;;;17.50;10.73;;;-1.90;19.30;;;;;;5045253;28;20462;-72
2023/12/03 00:27:54;;;;;;;18.13;11.57;;;-1.90;19.40;;;;;;5042832;28;20898;-72
2023/12/03 00:30:21;;;;;;;23.53;17.73;;;-1.90;19.40;;;;;;5043384;28;20553;-72
2023/12/03 00:32:48;;;;;;;23.37;11.57;;;-1.80;19.50;;;;;;5045312;28;21004;-72
2023/12/03 00:35:16;;;;;;;21.17;12.10;;;-1.80;19.60;;;;;;5044878;28;20468;-72
2023/12/03 00:37:43;;;;;;;17.83;10.70;;;-1.80;19.50;;;;;;5042055;28;20478;-71
2023/12/03 00:40:11;;;;;;;19.33;11.40;;;-1.70;19.40;;;;;;5043250;28;20464;-72
2023/12/03 00:42:38;;;;;;;19.60;11.77;;;-1.60;19.30;;;;;;5043979;28;20954;-72
2023/12/03 00:45:06;;;;;;;16.27;11.40;;;-1.60;19.80;;;;;;5045097;28;20462;-72
2023/12/03 00:47:33;;;;;;;16.70;11.03;;;-1.60;19.40;;;;;;5041666;28;20485;-72
2023/12/03 00:50:00;;;;;;;16.80;9.70;;;-1.60;19.50;;;;;;5043971;28;20493;-72
2023/12/03 00:52:28;;;;;;;17.80;10.30;;;-1.60;19.60;;;;;;5047835;28;20460;-72
2023/12/03 00:54:55;;;;;;;17.70;11.40;;;-1.60;19.70;;;;;;5047449;28;20450;-72
2023/12/03 00:57:21;;;;;;;17.90;10.57;;;-1.60;19.70;;;;;;5045190;28;21117;-72
2023/12/03 00:59:48;;;;;;;17.73;10.77;;;-1.60;19.70;;;;;;5045723;28;20880;-72
2023/12/03 01:02:15;;;;;;;19.00;11.43;;;-1.60;20.30;;;;;;5048888;28;20482;-72
2023/12/03 01:04:42;;;;;;;20.43;11.60;;;-1.60;19.80;;;;;;5048320;28;20476;-72
2023/12/03 01:07:09;;;;;;;16.80;11.33;;;-1.60;19.90;;;;;;5043740;28;20484;-72
2023/12/03 01:09:37;;;;;;;21.37;12.23;;;-1.60;19.90;;;;;;5047933;28;20470;-72
2023/12/03 01:12:04;;;;;;;16.07;10.80;;;-1.60;20.00;;;;;;5048601;28;20533;-72
2023/12/03 01:14:31;;;;;;;16.30;9.90;;;-1.60;19.90;;;;;;5048259;28;20484;-72
2023/12/03 01:16:58;;;;;;;19.60;11.77;;;-1.60;19.90;;;;;;5047656;28;20618;-72
2023/12/03 01:19:25;;;;;;;18.87;12.27;;;-1.60;19.80;;;;;;5046266;28;20493;-72
2023/12/03 01:21:52;;;;;;;18.30;11.57;;;-1.60;19.80;;;;;;5046059;28;20481;-72
2023/12/03 01:24:19;;;;;;;17.10;9.83;;;-1.60;19.80;;;;;;5046852;28;20463;-72
2023/12/03 01:26:47;;;;;;;16.97;11.33;;;-1.60;19.70;;;;;;5043530;28;20932;-71
2023/12/03 01:29:14;;;;;;;19.23;12.60;;;-1.60;19.80;;;;;;5047337;28;20827;-71
2023/12/03 01:31:40;;;;;;;18.10;13.27;;;-1.60;19.80;;;;;;5042723;28;20478;-72
2023/12/03 01:34:07;;;;;;;17.80;11.30;;;-1.60;19.80;;;;;;5049568;28;20464;-72
2023/12/03 01:36:34;;;;;;;18.67;11.77;;;-1.60;19.90;;;;;;5044367;28;20604;-72
2023/12/03 01:39:01;;;;;;;18.33;12.60;;;-1.60;19.90;;;;;;5045485;28;20476;-71
2023/12/03 01:41:28;;;;;;;19.37;12.27;;;-1.60;19.90;;;;;;5048398;28;20481;-72
2023/12/03 01:43:56;;;;;;;21.00;12.07;;;-1.60;19.90;;;;;;5042868;28;20470;-72
2023/12/03 01:46:23;;;;;;;18.53;12.23;;;-1.70;20.00;;;;;;5048157;28;21249;-72
2023/12/03 01:48:51;;;;;;;16.23;10.97;;;-1.70;19.90;;;;;;5044902;28;20466;-72
2023/12/03 01:51:19;;;;;;;19.00;12.50;;;-1.70;20.00;;;;;;5042538;22;20494;-64
2023/12/03 01:53:47;;;;;;;16.70;11.90;;;-1.70;20.00;;;;;;5026328;28;20470;-64
2023/12/03 01:56:14;;;;;;;19.27;12.70;;;-1.60;20.10;;;;;;5023286;28;21025;-65
2023/12/03 01:58:41;;;;;;;19.73;12.10;;;-1.60;20.10;;;;;;5006277;28;20491;-65
2023/12/03 02:01:10;;;;;;;22.37;13.10;;;-1.70;20.60;;;;;;5011622;28;20482;-64
2023/12/03 02:03:36;;;;;;;20.57;13.17;;;-1.60;20.10;;;;;;5006574;28;20464;-65
2023/12/03 02:06:05;;;;;;;18.47;12.40;;;-1.60;20.20;;;;;;5013291;28;20850;-65
2023/12/03 02:08:32;;;;;;;20.83;12.13;;;-1.60;20.10;;;;;;5007510;28;21075;-65
2023/12/03 02:10:59;;;;;;;19.40;11.10;;;-1.60;20.10;;;;;;5006647;28;20452;-64
2023/12/03 02:13:30;;;;;;;18.40;12.03;;;-1.60;20.10;;;;;;5001883;28;20490;-65
2023/12/03 02:15:56;;;;;;;19.57;12.20;;;-1.60;20.90;;;;;;5007585;28;21043;-65
2023/12/03 02:18:26;;;;;;;17.20;11.73;;;-1.60;20.20;;;;;;5010268;28;20475;-65
2023/12/03 02:20:53;;;;;;;19.60;13.87;;;-1.60;20.20;;;;;;5008058;28;20480;-65
2023/12/03 02:23:22;;;;;;;24.53;13.97;;;-1.60;20.20;;;;;;5008635;28;20571;-65
2023/12/03 02:25:51;;;;;;;19.50;12.50;;;-1.60;20.20;;;;;;5004634;28;20464;-65
2023/12/03 02:28:18;;;;;;;21.70;14.00;;;-1.60;20.20;;;;;;5008751;28;20476;-65
2023/12/03 02:30:45;;;;;;;20.20;13.10;;;-1.60;20.30;;;;;;5005359;28;20484;-64
2023/12/03 02:33:11;;;;;;;23.27;13.47;;;-1.70;20.20;;;;;;5010266;28;20475;-65
2023/12/03 02:35:38;;;;;;;21.37;12.80;;;-1.70;20.20;;;;;;5006363;28;20478;-65
2023/12/03 02:38:05;;;;;;;23.07;13.43;;;-1.70;20.20;;;;;;5006160;28;20480;-65
2023/12/03 02:40:34;;;;;;;22.40;13.20;;;-1.70;20.30;;;;;;5007945;28;20835;-65
2023/12/03 02:43:00;;;;;;;18.43;12.10;;;-1.80;20.10;;;;;;5007829;28;20468;-65
2023/12/03 02:45:27;;;;;;;19.10;12.03;;;-1.70;19.90;;;;;;5007933;28;20466;-65
2023/12/03 02:47:54;;;;;;;19.07;12.27;;;-1.80;19.70;;;;;;5005171;28;20484;-64
2023/12/03 02:50:21;;;;;;;17.17;11.33;;;-1.80;19.80;;;;;;5006665;28;20926;-65
2023/12/03 02:52:48;;;;;;;19.60;12.13;;;-1.90;19.80;;;;;;5008269;28;20834;-65
2023/12/03 02:55:15;;;;;;;17.73;12.23;;;-1.90;19.90;;;;;;5004517;28;20459;-64
2023/12/03 02:57:43;;;;;;;21.30;12.80;;;-1.90;20.00;;;;;;5006458;28;20549;-64
2023/12/03 03:00:11;;;;;;;21.20;12.27;;;-1.90;20.10;;;;;;5005830;28;20564;-65
2023/12/03 03:02:39;;;;;;;20.87;13.20;;;-2.00;20.20;;;;;;5004862;28;20472;-65
2023/12/03 03:05:06;;;;;;;19.73;11.73;;;-2.00;20.30;;;;;;5007819;28;20473;-65
2023/12/03 03:07:33;;;;;;;20.03;12.17;;;-2.00;20.50;;;;;;5007097;28;20487;-65
2023/12/03 03:10:00;;;;;;;20.20;12.97;;;-2.00;20.70;;;;;;5007122;28;20704;-65
2023/12/03 03:12:27;;;;;;;19.80;13.17;;;-1.90;21.40;;;;;;5007863;28;20456;-65
2023/12/03 03:14:55;;;;;;;20.57;13.53;;;-2.00;20.90;;;;;;5006203;28;20466;-65
2023/12/03 03:17:22;;;;;;;20.60;12.50;;;-2.00;21.10;;;;;;5004637;28;20483;-65
2023/12/03 03:19:49;;;;;;;19.80;12.10;;;-1.90;21.70;;;;;;5005283;28;20532;-65
2023/12/03 03:22:16;;;;;;;19.90;11.73;;;-1.90;21.10;;;;;;5005000;28;20481;-65
2023/12/03 03:24:43;;;;;;;20.00;11.70;;;-1.90;21.20;;;;;;5004221;28;20466;-65
2023/12/03 03:27:10;;;;;;;18.77;11.40;;;-1.90;21.20;;;;;;5007787;28;20484;-65
2023/12/03 03:29:37;;;;;;;18.70;12.13;;;-1.90;21.20;;;;;;5007376;28;20466;-65
2023/12/03 03:32:06;;;;;;;19.17;11.80;;;-1.90;21.20;;;;;;5001560;28;20853;-65
2023/12/03 03:34:33;;;;;;;18.23;11.63;;;-1.80;21.20;;;;;;5003598;28;20459;-65
2023/12/03 03:37:00;;;;;;;16.87;12.13;;;-1.80;21.10;;;;;;5003897;28;21362;-65
2023/12/03 03:39:27;;;;;;;31.37;14.40;;;-1.80;21.00;;;;;;5005254;28;20460;-65
2023/12/03 03:41:54;;;;;;;20.80;12.53;;;-1.80;20.90;;;;;;5007245;28;21106;-65
2023/12/03 03:44:20;;;;;;;17.53;11.10;;;-1.80;20.80;;;;;;5007062;28;20468;-65
2023/12/03 03:46:47;;;;;;;16.53;10.93;;;-1.80;20.70;;;;;;5007193;28;20493;-65
2023/12/03 03:49:16;;;;;;;21.00;12.27;;;-1.80;20.60;;;;;;5006349;28;20475;-65
2023/12/03 03:51:42;;;;;;;20.90;12.13;;;-1.80;20.50;;;;;;5007518;28;20460;-65
2023/12/03 03:54:09;;;;;;;17.70;11.20;;;-1.70;20.50;;;;;;5003397;28;20465;-65
2023/12/03 03:56:36;;;;;;;18.60;11.47;;;-1.70;20.40;;;;;;5005333;28;20490;-65
2023/12/03 03:59:03;;;;;;;16.93;10.47;;;-1.70;20.30;;;;;;5004910;28;20463;-65
2023/12/03 04:01:30;;;;;;;16.90;10.97;;;-1.60;20.20;;;;;;5002202;28;21303;-65
2023/12/03 04:03:57;;;;;;;18.00;11.20;;;-1.60;20.10;;;;;;5004857;28;20514;-65
2023/12/03 04:06:25;;;;;;;19.90;12.10;;;-1.70;20.00;;;;;;5005675;28;20502;-65
2023/12/03 04:08:52;;;;;;;19.47;11.40;;;-1.70;20.00;;;;;;5005565;28;20468;-65
2023/12/03 04:11:19;;;;;;;15.67;10.20;;;-1.60;20.00;;;;;;5006484;28;20451;-65
2023/12/03 04:13:46;;;;;;;18.00;10.77;;;-1.70;19.90;;;;;;5001873;28;20507;-65
2023/12/03 04:16:22;;;;;;;14.50;10.00;;;-1.70;19.90;;;;;;5005781;28;20483;-65
2023/12/03 04:18:48;;;;;;;15.57;10.30;;;-1.70;19.90;;;;;;5005759;28;20459;-65
2023/12/03 04:21:16;;;;;;;16.37;9.83;;;-1.60;19.80;;;;;;5002357;28;20559;-65
2023/12/03 04:23:44;;;;;;;17.10;9.67;;;-1.70;19.80;;;;;;5002196;28;21000;-65
2023/12/03 04:26:12;;;;;;;15.70;9.70;;;-1.70;19.80;;;;;;5002928;28;20480;-65
2023/12/03 04:28:41;;;;;;;16.80;10.37;;;-1.70;19.80;;;;;;5004352;28;20968;-65
2023/12/03 04:31:16;;;;;;;15.47;9.37;;;-1.70;19.70;;;;;;5006264;28;20467;-65
2023/12/03 04:33:43;;;;;;;14.40;9.60;;;-1.70;19.60;;;;;;5006460;28;20552;-65
2023/12/03 04:36:12;;;;;;;15.50;10.10;;;-1.70;19.60;;;;;;5004429;28;21471;-65
2023/12/03 04:38:39;;;;;;;14.73;9.20;;;-1.70;19.60;;;;;;5004648;28;20464;-65
2023/12/03 04:41:07;;;;;;;14.80;9.10;;;-1.70;19.70;;;;;;5005887;28;20460;-65
2023/12/03 04:43:34;;;;;;;17.03;10.23;;;-1.70;19.60;;;;;;5004875;28;20470;-65
2023/12/03 04:46:04;;;;;;;16.57;9.23;;;-1.70;20.00;;;;;;5003131;28;20675;-65
2023/12/03 04:48:31;;;;;;;15.27;9.30;;;-1.70;20.00;;;;;;5005050;28;20463;-64
2023/12/03 04:50:58;;;;;;;14.10;8.83;;;-1.70;19.50;;;;;;5003952;28;20460;-64
2023/12/03 04:53:25;;;;;;;12.37;7.93;;;-1.60;19.40;;;;;;5004763;28;20911;-65
2023/12/03 04:55:52;;;;;;;14.53;8.00;;;-1.60;19.30;;;;;;5003890;28;20468;-65
2023/12/03 04:58:20;;;;;;;13.30;8.30;;;-1.70;19.20;;;;;;5006041;28;20985;-65
2023/12/03 05:00:47;;;;;;;15.50;9.73;;;-1.70;19.00;;;;;;5006137;28;20475;-65
2023/12/03 05:03:14;;;;;;;14.07;9.00;;;-1.70;18.80;;;;;;5005889;28;20485;-65
2023/12/03 05:05:41;;;;;;;13.97;8.20;;;-1.70;18.70;;;;;;5005661;28;20475;-65
2023/12/03 05:08:08;;;;;;;14.50;9.17;;;-1.70;18.60;;;;;;5004454;28;20578;-65
2023/12/03 05:10:35;;;;;;;16.23;11.00;;;-1.70;18.50;;;;;;5005050;28;20470;-65
2023/12/03 05:13:02;;;;;;;13.90;8.70;;;-1.70;18.30;;;;;;5003194;28;20462;-65
2023/12/03 05:15:30;;;;;;;12.07;8.03;;;-1.70;18.30;;;;;;5004848;28;20456;-65
2023/12/03 05:17:57;;;;;;;12.80;8.03;;;-1.70;18.20;;;;;;5002527;28;20995;-65
2023/12/03 05:20:24;;;;;;;14.80;8.83;;;-1.70;18.20;;;;;;5003009;28;20960;-65
2023/12/03 05:22:53;;;;;;;13.73;8.37;;;-1.70;18.30;;;;;;5004058;28;20483;-65
2023/12/03 05:25:20;;;;;;;13.77;8.40;;;-1.70;18.30;;;;;;5004473;28;20471;-65
2023/12/03 05:27:47;;;;;;;13.00;8.20;;;-1.70;18.20;;;;;;5003069;28;21164;-65
2023/12/03 05:30:15;;;;;;;15.50;8.93;;;-1.80;18.60;;;;;;5002827;28;20456;-65
2023/12/03 05:32:43;;;;;;;11.90;7.70;;;-1.80;18.10;;;;;;5003168;28;20451;-65
2023/12/03 05:35:10;;;;;;;14.50;8.67;;;-1.80;18.10;;;;;;5004473;28;20467;-65
2023/12/03 05:37:38;;;;;;;13.60;8.73;;;-1.80;18.10;;;;;;5006233;28;20485;-65
2023/12/03 05:40:08;;;;;;;12.73;7.47;;;-1.80;18.10;;;;;;5007956;28;20468;-65
2023/12/03 05:42:35;;;;;;;13.70;8.40;;;-1.90;18.10;;;;;;5007132;28;20476;-65
2023/12/03 05:45:03;;;;;;;13.97;8.17;;;-1.90;18.70;;;;;;5005563;28;20831;-65
2023/12/03 05:47:30;;;;;;;16.50;9.43;;;-1.90;18.20;;;;;;5006414;28;20546;-65
2023/12/03 05:49:59;;;;;;;13.10;8.33;;;-1.90;18.20;;;;;;5005460;28;21004;-65
2023/12/03 05:52:26;;;;;;;13.40;8.80;;;-1.90;18.20;;;;;;5008116;28;20463;-65
2023/12/03 05:54:53;;;;;;;14.80;8.97;;;-1.90;18.30;;;;;;5004825;28;20461;-65
2023/12/03 05:57:20;;;;;;;12.30;7.87;;;-1.90;18.30;;;;;;5011265;28;20475;-65
2023/12/03 05:59:47;;;;;;;12.43;7.47;;;-1.90;18.80;;;;;;5008144;28;20464;-65
2023/12/03 06:02:14;;;;;;;11.20;6.80;;;-2.00;18.30;;;;;;5009031;28;20475;-65
2023/12/03 06:04:41;;;;;;;17.10;9.30;;;-1.90;18.40;;;;;;5009124;28;20463;-65
2023/12/03 06:07:10;;;;;;;17.80;9.50;;;-1.90;18.90;;;;;;5007083;28;20484;-65
2023/12/03 06:09:37;;;;;;;14.53;8.17;;;-2.00;18.40;;;;;;5006940;28;20960;-65
2023/12/03 06:12:04;;;;;;;18.30;9.00;;;-2.00;18.40;;;;;;5006693;28;20460;-65
2023/12/03 06:14:31;;;;;;;13.53;8.53;;;-2.00;18.50;;;;;;5008738;28;20459;-65
2023/12/03 06:16:58;;;;;;;14.23;9.47;;;-2.10;18.50;;;;;;5005713;28;21153;-65
2023/12/03 06:19:24;;;;;;;16.43;9.33;;;-2.20;19.00;;;;;;5008039;28;20476;-65
2023/12/03 06:21:51;;;;;;;12.40;7.97;;;-2.20;18.50;;;;;;5007677;28;20960;-64
2023/12/03 06:24:20;;;;;;;14.33;8.67;;;-2.30;18.50;;;;;;5008171;28;20555;-65
2023/12/03 06:26:47;;;;;;;15.87;8.53;;;-2.40;18.50;;;;;;5007511;28;20495;-65
2023/12/03 06:29:14;;;;;;;15.50;9.50;;;-2.40;18.60;;;;;;5007661;28;20963;-65
2023/12/03 06:31:41;;;;;;;13.87;8.63;;;-2.50;18.60;;;;;;5008651;28;20486;-65
2023/12/03 06:34:07;;;;;;;15.00;10.10;;;-2.50;18.60;;;;;;5007435;28;20464;-65
2023/12/03 06:36:34;;;;;;;11.97;8.20;;;-2.60;18.40;;;;;;5001778;28;20480;-65
2023/12/03 06:39:01;;;;;;;14.20;9.37;;;-2.60;18.60;;;;;;5004413;28;20498;-65
2023/12/03 06:41:29;;;;;;;15.30;9.27;;;-2.70;18.80;;;;;;5008690;28;20802;-65
2023/12/03 06:43:56;;;;;;;14.63;9.13;;;-2.70;19.00;;;;;;5007287;28;20956;-65
2023/12/03 06:46:23;;;;;;;18.10;10.17;;;-2.70;19.10;;;;;;5005200;28;20490;-65
2023/12/03 06:48:50;;;;;;;15.47;9.60;;;-2.70;19.30;;;;;;5010780;28;20456;-65
2023/12/03 06:51:17;;;;;;;15.57;8.90;;;-2.70;19.50;;;;;;5003284;28;20859;-65
2023/12/03 06:53:44;;;;;;;13.60;7.70;;;-2.60;19.70;;;;;;5006660;28;20460;-65
2023/12/03 06:56:11;;;;;;;16.37;10.63;;;-2.60;19.80;;;;;;5008890;28;20489;-65
2023/12/03 06:58:40;;;;;;;14.90;8.17;;;-2.60;20.00;;;;;;5004507;28;20492;-65
2023/12/03 07:01:07;;;;;;;15.60;8.03;;;-2.60;20.00;;;;;;5008226;28;20463;-65
2023/12/03 07:03:34;;;;;;;13.50;8.37;;;-2.60;20.00;;;;;;5006458;28;20479;-65
2023/12/03 07:06:02;;;;;;;15.17;9.07;;;-2.60;19.90;;;;;;5007001;28;20468;-65
2023/12/03 07:08:28;;;;;;;14.37;9.90;;;-2.60;19.90;;;;;;5001405;28;20499;-64
2023/12/03 07:10:56;;;;;;;16.30;9.10;;;-2.60;19.60;;;;;;5007138;28;20575;-65
2023/12/03 07:13:23;;;;;;;15.77;8.47;;;-2.70;19.70;;;;;;5005064;28;20462;-65
2023/12/03 07:15:51;;;;;;;12.80;8.50;;;-2.70;19.40;;;;;;5004386;28;20460;-65
2023/12/03 07:18:18;;;;;;;15.67;9.03;;;-2.60;17.90;;;;;;5006336;28;20464;-65
2023/12/03 07:20:45;;;;;;;18.57;10.87;;;-2.60;17.80;;;;;;5002831;28;20469;-65
2023/12/03 07:23:12;;;;;;;15.33;9.70;;;-2.50;17.80;;;;;;5005999;28;20566;-64
2023/12/03 07:25:38;;;;;;;13.80;7.97;;;-2.50;18.20;;;;;;5003468;28;20466;-65
2023/12/03 07:28:05;;;;;;;16.47;8.80;;;-2.50;17.80;;;;;;5005711;28;20491;-65
2023/12/03 07:30:32;;;;;;;15.57;9.50;;;-2.50;17.80;;;;;;5004662;28;20460;-65
2023/12/03 07:33:00;;;;;;;14.97;8.63;;;-2.60;18.00;;;;;;4999085;28;20464;-65
2023/12/03 07:35:27;;;;;;;16.47;9.20;;;-2.60;18.30;;;;;;5007095;28;20558;-65
2023/12/03 07:37:55;;;;;;;14.80;8.50;;;-2.50;18.40;;;;;;5006799;28;20862;-65
2023/12/03 07:40:22;;;;;;;14.00;8.47;;;-2.40;18.30;;;;;;5004859;28;20973;-65
2023/12/03 07:42:49;;;;;;;13.70;8.20;;;-2.20;18.20;;;;;;5006174;28;20920;-65
2023/12/03 07:45:15;;;;;;;14.63;8.53;;;-2.20;18.60;;;;;;5003593;28;20463;-65
2023/12/03 07:47:42;;;;;;;13.93;8.77;;;-1.80;17.70;;;;;;5003787;28;20867;-65
2023/12/03 07:50:11;;;;;;;15.70;9.23;;;-1.50;17.00;;;;;;5005191;28;20469;-65
2023/12/03 07:52:38;;;;;;;13.70;8.77;;;-0.80;16.10;;;;;;5008136;28;20456;-65
2023/12/03 07:55:07;;;;;;;13.27;8.43;;;0.00;14.40;;;;;;5005952;28;20482;-65
2023/12/03 07:57:34;;;;;;;15.27;9.00;;;0.90;12.40;;;;;;5001563;28;20947;-65
2023/12/03 08:00:02;;;;;;;15.17;9.67;;;1.70;10.40;;;;;;5005141;28;21000;-65
2023/12/03 08:02:28;;;;;;;14.20;8.83;;;2.40;8.70;;;;;;5003529;28;21032;-65
2023/12/03 08:04:55;;;;;;;19.47;13.03;;;3.00;6.80;;;;;;5000488;28;20478;-65
2023/12/03 08:07:24;;;;;;;18.13;11.03;;;3.30;6.10;;;;;;5003197;28;20491;-65
2023/12/03 08:09:51;;;;;;;21.40;13.40;;;3.50;5.40;;;;;;5004244;28;20580;-65
2023/12/03 08:12:18;;;;;;;19.03;13.00;;;3.60;4.40;;;;;;5001840;28;20455;-65
2023/12/03 08:14:45;;;;;;;14.30;10.50;;;3.80;3.80;;;;;;5001915;28;20990;-65
2023/12/03 08:17:12;;;;;;;14.67;9.40;;;3.80;3.60;;;;;;5005123;28;20510;-65
2023/12/03 08:19:40;;;;;;;13.50;9.53;;;3.90;3.10;;;;;;5004940;28;20463;-65
2023/12/03 08:22:07;;;;;;;17.13;10.23;;;4.00;3.40;;;;;;5005695;28;20466;-66
2023/12/03 08:24:35;;;;;;;13.50;9.20;;;4.10;2.70;;;;;;5002164;28;20583;-66
2023/12/03 08:27:02;;;;;;;12.20;9.63;;;4.10;2.60;;;;;;5003739;28;21090;-66
2023/12/03 08:29:30;;;;;;;13.57;9.80;;;4.20;1.80;;;;;;5002299;28;21040;-66
2023/12/03 08:31:56;;;;;;;13.83;9.40;;;4.30;1.80;;;;;;5003717;28;20556;-65
2023/12/03 08:34:23;;;;;;;13.10;8.90;;;4.30;1.60;;;;;;5001436;28;20490;-66
2023/12/03 08:36:51;;;;;;;14.27;10.00;;;4.40;1.70;;;;;;5006213;28;20495;-66
2023/12/03 08:39:17;;;;;;;12.07;9.97;;;4.40;2.00;;;;;;5005070;28;20463;-66
2023/12/03 08:41:46;;;;;;;14.23;8.90;;;4.40;2.70;;;;;;5004376;28;20464;-66
2023/12/03 08:44:14;;;;;;;12.53;8.97;;;4.40;2.70;;;;;;5000461;28;20566;-65
2023/12/03 08:46:41;;;;;;;11.97;8.90;;;4.40;2.80;;;;;;4999442;28;20499;-66
2023/12/03 08:49:08;;;;;;;13.10;9.10;;;4.40;2.30;;;;;;5004886;28;20463;-66
2023/12/03 08:51:35;;;;;;;12.00;9.53;;;4.50;2.50;;;;;;5006961;28;20464;-66
2023/12/03 08:54:02;;;;;;;14.70;10.20;;;4.60;1.60;;;;;;5008323;28;20467;-66
2023/12/03 08:56:29;;;;;;;13.40;10.27;;;4.70;1.80;;;;;;5007976;28;20936;-66
2023/12/03 08:58:57;;;;;;;17.20;12.07;;;5.00;1.50;;;;;;5006258;28;20478;-66
2023/12/03 09:01:23;;;;;;;13.50;10.43;;;5.20;1.00;;;;;;5006080;28;20578;-66
2023/12/03 09:03:50;;;;;;;12.77;9.93;;;5.60;1.00;;;;;;5006796;28;20484;-66
2023/12/03 09:06:19;;;;;;;13.60;10.57;;;6.00;1.00;;;;;;5005091;28;20483;-67
2023/12/03 09:08:45;;;;;;;15.27;10.47;;;6.50;1.00;;;;;;5003016;28;20839;-66
2023/12/03 09:11:12;;;;;;;15.10;10.63;;;6.80;1.00;;;;;;5006314;28;20878;-66
2023/12/03 09:13:39;;;;;;;15.43;11.63;;;6.80;1.00;;;;;;5007250;28;20460;-66
2023/12/03 09:16:09;;;;;;;15.00;9.27;;;6.70;1.00;;;;;;5011312;28;20455;-66
2023/12/03 09:18:38;;;;;;;14.87;9.87;;;6.60;1.00;;;;;;5009924;28;20455;-66
2023/12/03 09:21:06;;;;;;;13.83;10.00;;;6.60;1.00;;;;;;5010449;28;20456;-66
2023/12/03 09:23:34;;;;;;;13.13;10.47;;;6.50;1.00;;;;;;5006990;28;20915;-66
2023/12/03 09:26:02;;;;;;;13.30;9.90;;;6.50;1.00;;;;;;5009794;28;20459;-66
2023/12/03 09:28:30;;;;;;;13.87;10.03;;;6.90;1.00;;;;;;5007857;28;20846;-66
2023/12/03 09:30:57;;;;;;;12.20;9.53;;;7.40;1.00;;;;;;5004155;28;21218;-66
2023/12/03 09:33:27;;;;;;;15.10;10.73;;;7.90;1.00;;;;;;5011299;28;20459;-66
2023/12/03 09:35:55;;;;;;;14.27;9.07;;;8.50;1.00;;;;;;5008640;28;20456;-66
2023/12/03 09:38:22;;;;;;;11.63;9.30;;;8.90;1.00;;;;;;5010855;28;20478;-66
2023/12/03 09:40:50;;;;;;;10.13;8.00;;;9.10;1.00;;;;;;5007697;28;20456;-66
2023/12/03 09:43:18;;;;;;;13.33;9.20;;;9.40;1.00;;;;;;5008983;28;20483;-66
2023/12/03 09:45:47;;;;;;;14.53;8.90;;;9.40;1.00;;;;;;5008828;28;20459;-67
2023/12/03 09:48:17;;;;;;;13.27;9.27;;;9.50;1.00;;;;;;5006148;28;20483;-67
2023/12/03 09:50:46;;;;;;;15.27;8.40;;;9.40;1.00;;;;;;5006386;28;20466;-66
2023/12/03 09:53:14;;;;;;;13.73;9.03;;;9.20;1.00;;;;;;5009008;28;20452;-68
2023/12/03 09:55:41;;;;;;;16.70;10.70;;;9.00;1.00;;;;;;5003556;28;20463;-67
2023/12/03 09:58:11;;;;;;;14.80;9.97;;;8.60;1.00;;;;;;5005919;28;21018;-67
2023/12/03 10:00:39;;;;;;;14.27;8.83;;;8.40;1.00;;;;;;5000543;28;20876;-69
2023/12/03 10:03:08;;;;;;;11.93;8.57;;;8.10;1.00;;;;;;4997452;28;20462;-69
2023/12/03 10:05:35;;;;;;;15.40;11.50;;;7.80;1.00;;;;;;4999820;28;23120;-68
2023/12/03 10:08:04;;;;;;;14.53;11.97;;;7.60;1.00;;;;;;4998421;28;20491;-67
2023/12/03 10:10:32;;;;;;;21.73;19.47;;;7.40;1.00;;;;;;4998712;28;20518;-67
2023/12/03 10:13:00;;;;;;;17.30;12.50;;;7.30;1.00;;;;;;4999100;28;20987;-67
2023/12/03 10:15:27;;;;;;;13.37;10.27;;;7.30;1.00;;;;;;5006193;28;20474;-67
2023/12/03 10:17:54;;;;;;;13.93;10.10;;;7.20;1.00;;;;;;5006888;28;21013;-67
2023/12/03 10:20:28;;;;;;;14.37;10.00;;;7.20;1.00;;;;;;5003823;28;20471;-66
2023/12/03 10:22:57;;;;;;;18.10;9.10;;;7.10;1.00;;;;;;5000727;28;20456;-68
2023/12/03 10:25:33;;;;;;;15.53;10.30;;;7.20;1.00;;;;;;4999803;28;20460;-67
2023/12/03 10:28:01;;;;;;;23.30;17.00;;;7.20;1.00;;;;;;5000451;28;20483;-67
2023/12/03 10:30:28;;;;;;;16.90;12.63;;;7.30;1.00;;;;;;5003023;28;20468;-66
2023/12/03 10:32:55;;;;;;;14.63;11.80;;;7.30;1.00;;;;;;5002497;28;20467;-68
2023/12/03 10:35:22;;;;;;;15.13;10.37;;;7.40;1.00;;;;;;5001429;28;20483;-66
2023/12/03 10:37:50;;;;;;;15.90;10.70;;;7.50;1.00;;;;;;5002571;28;20489;-66
2023/12/03 10:40:18;;;;;;;14.30;10.30;;;7.50;1.00;;;;;;5005629;28;20496;-65
2023/12/03 10:42:47;;;;;;;13.23;9.63;;;7.60;1.00;;;;;;5006072;28;20551;-65
2023/12/03 10:45:15;;;;;;;12.37;9.20;;;7.70;1.00;;;;;;5003706;28;20499;-66
2023/12/03 10:47:43;;;;;;;13.97;10.50;;;7.80;1.00;;;;;;5005888;28;20483;-69
2023/12/03 10:50:12;;;;;;;13.47;9.63;;;7.90;1.00;;;;;;5000824;28;20472;-67
2023/12/03 10:52:41;;;;;;;16.10;9.83;;;8.00;1.00;;;;;;4999552;28;20507;-66
2023/12/03 10:55:09;;;;;;;17.60;13.97;;;8.00;1.00;;;;;;5002480;28;20467;-65
2023/12/03 10:57:44;;;;;;;20.27;14.03;;;8.00;1.00;;;;;;5002271;28;20480;-66
2023/12/03 11:00:17;;;;;;;21.30;16.30;;;7.90;1.00;;;;;;4999618;28;20467;-66
2023/12/03 11:02:46;;;;;;;19.13;13.40;;;7.80;1.00;;;;;;5008138;28;20472;-65
2023/12/03 11:05:19;;;;;;;19.03;14.30;;;7.80;1.00;;;;;;4997708;28;20483;-65
2023/12/03 11:07:46;;;;;;;18.27;13.50;;;7.70;1.00;;;;;;5004630;28;20586;-65
2023/12/03 11:10:13;;;;;;;31.27;22.23;;;7.70;1.00;;;;;;5005593;28;20480;-65
2023/12/03 11:12:41;;;;;;;24.57;18.63;;;7.60;1.00;;;;;;5002197;28;20464;-67
2023/12/03 11:15:09;;;;;;;28.10;20.83;;;7.60;1.00;;;;;;5008661;28;20464;-65
2023/12/03 11:17:40;;;;;;;44.40;30.87;;;7.50;1.00;;;;;;5005274;28;20476;-66
2023/12/03 11:20:12;;;;;;;38.53;27.50;;;7.50;1.00;;;;;;5003678;28;20499;-65
2023/12/03 11:22:49;;;;;;;35.90;25.27;;;7.60;1.00;;;;;;5006501;28;20555;-67
2023/12/03 11:25:20;;;;;;;20.60;15.63;;;7.80;1.00;;;;;;5007121;28;20566;-67
2023/12/03 11:27:47;;;;;;;16.63;12.23;;;7.90;1.00;;;;;;5003881;28;20557;-66
2023/12/03 11:30:15;;;;;;;20.23;14.53;;;8.10;1.00;;;;;;5005656;28;20451;-66
2023/12/03 11:32:43;;;;;;;17.90;13.30;;;8.00;1.00;;;;;;5004871;28;20925;-65
2023/12/03 11:35:14;;;;;;;19.50;14.87;;;8.10;1.00;;;;;;4998385;28;20465;-66
2023/12/03 11:37:43;;;;;;;18.30;13.90;;;7.90;1.00;;;;;;5007659;28;20506;-66
2023/12/03 11:40:12;;;;;;;19.33;14.50;;;7.90;1.00;;;;;;5003865;28;20995;-66
2023/12/03 11:42:45;;;;;;;18.33;14.80;;;7.80;1.00;;;;;;5000382;28;21031;-66
2023/12/03 11:45:19;;;;;;;18.70;16.70;;;7.60;1.00;;;;;;5000487;28;20492;-66
2023/12/03 11:48:08;;;;;;;20.97;15.47;;;7.50;1.00;;;;;;5002830;28;20491;-66
2023/12/03 11:50:36;;;;;;;23.27;17.30;;;7.40;1.00;;;;;;5001089;28;20460;-66
2023/12/03 11:53:04;;;;;;;23.97;17.07;;;7.30;1.00;;;;;;5007032;28;20465;-67
2023/12/03 11:55:34;;;;;;;28.70;19.80;;;7.20;1.00;;;;;;5002109;28;20632;-66
2023/12/03 11:58:02;;;;;;;25.13;14.40;;;7.10;1.00;;;;;;5005644;28;20583;-67
2023/12/03 12:00:28;;;;;;;15.83;11.30;;;7.10;1.00;;;;;;4997749;28;20521;-67
2023/12/03 12:02:57;;;;;;;15.70;11.47;;;7.50;1.00;;;;;;5005629;28;20460;-67
2023/12/03 12:05:23;;;;;;;17.40;11.17;;;8.10;1.00;;;;;;5000248;28;20221;-67
2023/12/03 12:07:58;;;;;;;16.57;11.83;;;8.50;1.00;;;;;;5002959;28;20584;-68
2023/12/03 12:10:25;;;;;;;16.00;11.17;;;8.80;1.00;;;;;;5003255;28;20471;-66
2023/12/03 12:12:52;;;;;;;14.50;10.27;;;9.00;1.00;;;;;;5005882;28;20464;-66
2023/12/03 12:15:19;;;;;;;16.93;10.43;;;9.10;1.00;;;;;;5002890;28;20468;-66
2023/12/03 12:17:46;;;;;;;18.30;11.40;;;9.00;1.00;;;;;;5003536;28;20992;-66
2023/12/03 12:20:22;;;;;;;16.23;11.20;;;9.00;1.00;;;;;;5004259;28;21060;-66
2023/12/03 12:22:50;;;;;;;14.90;10.83;;;8.90;1.00;;;;;;5005167;28;20459;-67
2023/12/03 12:25:17;;;;;;;15.97;11.90;;;8.90;1.00;;;;;;5004994;28;20484;-67
2023/12/03 12:27:44;;;;;;;14.90;11.33;;;8.90;1.00;;;;;;5022233;23;20581;-65
2023/12/03 12:30:13;;;;;;;18.07;12.40;;;8.90;1.00;;;;;;5037615;28;20462;-65
2023/12/03 12:32:40;;;;;;;16.93;12.13;;;8.80;1.00;;;;;;5042736;28;20464;-65
2023/12/03 12:35:08;;;;;;;16.87;12.30;;;8.70;1.00;;;;;;5044673;28;20486;-63
2023/12/03 12:37:36;;;;;;;16.30;12.43;;;8.50;1.00;;;;;;5042418;28;20557;-63
2023/12/03 12:40:08;;;;;;;22.40;15.00;;;8.40;1.00;;;;;;5042475;28;20480;-63